sensor_id;sensor_type;location;lat;lon;timestamp;P1;durP1;ratioP1;P2;durP2;ratioP2
70071;SDS011;57434;42.794;23.302;2022-10-19T00:01:05;9.52;;;4.03;;
70071;SDS011;57434;42.794;23.302;2022-10-19T00:03:44;12.10;;;4.30;;
70071;SDS011;57434;42.794;23.302;2022-10-19T00:06:14;9.25;;;4.15;;
70071;SDS011;57434;42.794;23.302;2022-10-19T00:08:46;10.35;;;3.60;;
70071;SDS011;57434;42.794;23.302;2022-10-19T00:11:14;9.95;;;3.80;;
70071;SDS011;57434;42.794;23.302;2022-10-19T00:13:40;9.55;;;3.78;;
70071;SDS011;57434;42.794;23.302;2022-10-19T00:16:09;14.40;;;4.17;;
70071;SDS011;57434;42.794;23.302;2022-10-19T00:18:39;10.25;;;4.82;;
70071;SDS011;57434;42.794;23.302;2022-10-19T00:21:07;13.35;;;4.18;;
70071;SDS011;57434;42.794;23.302;2022-10-19T00:23:35;12.32;;;4.72;;
70071;SDS011;57434;42.794;23.302;2022-10-19T00:26:02;12.65;;;4.32;;
70071;SDS011;57434;42.794;23.302;2022-10-19T00:28:29;11.90;;;4.07;;
70071;SDS011;57434;42.794;23.302;2022-10-19T00:31:00;13.38;;;3.92;;
70071;SDS011;57434;42.794;23.302;2022-10-19T00:33:32;14.38;;;4.88;;
70071;SDS011;57434;42.794;23.302;2022-10-19T00:35:59;11.50;;;4.60;;
70071;SDS011;57434;42.794;23.302;2022-10-19T00:38:27;9.90;;;3.63;;
70071;SDS011;57434;42.794;23.302;2022-10-19T00:40:53;16.37;;;5.00;;
70071;SDS011;57434;42.794;23.302;2022-10-19T00:43:22;13.60;;;3.80;;
70071;SDS011;57434;42.794;23.302;2022-10-19T00:45:51;11.18;;;4.38;;
70071;SDS011;57434;42.794;23.302;2022-10-19T00:48:21;11.48;;;3.92;;
70071;SDS011;57434;42.794;23.302;2022-10-19T00:50:52;11.60;;;4.30;;
70071;SDS011;57434;42.794;23.302;2022-10-19T00:53:21;8.10;;;2.97;;
70071;SDS011;57434;42.794;23.302;2022-10-19T00:55:51;11.25;;;3.45;;
70071;SDS011;57434;42.794;23.302;2022-10-19T00:58:19;8.73;;;3.63;;
70071;SDS011;57434;42.794;23.302;2022-10-19T01:00:46;11.32;;;3.65;;
70071;SDS011;57434;42.794;23.302;2022-10-19T01:03:13;9.57;;;3.75;;
70071;SDS011;57434;42.794;23.302;2022-10-19T01:05:40;12.30;;;4.53;;
70071;SDS011;57434;42.794;23.302;2022-10-19T01:08:08;11.88;;;4.28;;
70071;SDS011;57434;42.794;23.302;2022-10-19T01:10:48;7.63;;;3.67;;
70071;SDS011;57434;42.794;23.302;2022-10-19T01:16:14;9.38;;;3.67;;
70071;SDS011;57434;42.794;23.302;2022-10-19T01:27:28;11.68;;;3.20;;
70071;SDS011;57434;42.794;23.302;2022-10-19T01:30:26;7.68;;;3.03;;
70071;SDS011;57434;42.794;23.302;2022-10-19T01:42:13;6.95;;;2.58;;
70071;SDS011;57434;42.794;23.302;2022-10-19T01:45:03;11.82;;;3.95;;
70071;SDS011;57434;42.794;23.302;2022-10-19T01:50:23;9.50;;;3.42;;
70071;SDS011;57434;42.794;23.302;2022-10-19T01:53:02;9.88;;;3.58;;
70071;SDS011;57434;42.794;23.302;2022-10-19T01:55:32;8.23;;;3.22;;
70071;SDS011;57434;42.794;23.302;2022-10-19T01:58:04;8.50;;;3.28;;
70071;SDS011;57434;42.794;23.302;2022-10-19T02:00:36;5.90;;;2.70;;
70071;SDS011;57434;42.794;23.302;2022-10-19T02:03:08;7.57;;;3.28;;
70071;SDS011;57434;42.794;23.302;2022-10-19T02:05:37;9.73;;;3.30;;
70071;SDS011;57434;42.794;23.302;2022-10-19T02:08:13;9.82;;;2.95;;
70071;SDS011;57434;42.794;23.302;2022-10-19T02:10:46;10.32;;;2.90;;
70071;SDS011;57434;42.794;23.302;2022-10-19T02:13:13;8.17;;;3.17;;
70071;SDS011;57434;42.794;23.302;2022-10-19T02:15:43;10.15;;;4.53;;
70071;SDS011;57434;42.794;23.302;2022-10-19T02:18:16;8.73;;;3.55;;
70071;SDS011;57434;42.794;23.302;2022-10-19T02:20:47;8.30;;;2.83;;
70071;SDS011;57434;42.794;23.302;2022-10-19T02:23:14;9.40;;;3.40;;
70071;SDS011;57434;42.794;23.302;2022-10-19T02:25:44;5.77;;;2.57;;
70071;SDS011;57434;42.794;23.302;2022-10-19T02:28:11;7.53;;;2.45;;
70071;SDS011;57434;42.794;23.302;2022-10-19T02:30:38;8.05;;;2.72;;
70071;SDS011;57434;42.794;23.302;2022-10-19T02:33:05;8.40;;;2.90;;
70071;SDS011;57434;42.794;23.302;2022-10-19T02:35:33;10.27;;;2.90;;
70071;SDS011;57434;42.794;23.302;2022-10-19T02:38:00;12.37;;;3.23;;
70071;SDS011;57434;42.794;23.302;2022-10-19T02:40:30;9.48;;;2.85;;
70071;SDS011;57434;42.794;23.302;2022-10-19T02:43:06;13.23;;;3.65;;
70071;SDS011;57434;42.794;23.302;2022-10-19T02:45:40;8.13;;;3.85;;
70071;SDS011;57434;42.794;23.302;2022-10-19T02:48:16;7.70;;;2.95;;
70071;SDS011;57434;42.794;23.302;2022-10-19T02:50:47;9.37;;;3.20;;
70071;SDS011;57434;42.794;23.302;2022-10-19T02:53:14;8.40;;;2.85;;
70071;SDS011;57434;42.794;23.302;2022-10-19T02:55:42;5.75;;;2.53;;
70071;SDS011;57434;42.794;23.302;2022-10-19T02:58:10;6.45;;;2.60;;
70071;SDS011;57434;42.794;23.302;2022-10-19T03:00:36;8.95;;;2.92;;
70071;SDS011;57434;42.794;23.302;2022-10-19T03:03:03;7.03;;;2.10;;
70071;SDS011;57434;42.794;23.302;2022-10-19T03:05:30;7.03;;;3.08;;
70071;SDS011;57434;42.794;23.302;2022-10-19T03:07:57;8.05;;;2.63;;
70071;SDS011;57434;42.794;23.302;2022-10-19T03:10:24;5.90;;;2.33;;
70071;SDS011;57434;42.794;23.302;2022-10-19T03:12:51;8.88;;;2.72;;
70071;SDS011;57434;42.794;23.302;2022-10-19T03:15:18;8.03;;;2.93;;
70071;SDS011;57434;42.794;23.302;2022-10-19T03:17:45;6.50;;;2.60;;
70071;SDS011;57434;42.794;23.302;2022-10-19T03:20:12;5.60;;;2.35;;
70071;SDS011;57434;42.794;23.302;2022-10-19T03:22:39;7.10;;;2.55;;
70071;SDS011;57434;42.794;23.302;2022-10-19T03:25:06;9.60;;;3.22;;
70071;SDS011;57434;42.794;23.302;2022-10-19T03:27:34;10.23;;;3.13;;
70071;SDS011;57434;42.794;23.302;2022-10-19T03:30:01;6.32;;;2.28;;
70071;SDS011;57434;42.794;23.302;2022-10-19T03:32:29;9.80;;;3.35;;
70071;SDS011;57434;42.794;23.302;2022-10-19T03:34:56;7.30;;;2.65;;
70071;SDS011;57434;42.794;23.302;2022-10-19T03:37:23;7.75;;;3.30;;
70071;SDS011;57434;42.794;23.302;2022-10-19T03:39:49;9.13;;;2.63;;
70071;SDS011;57434;42.794;23.302;2022-10-19T03:42:17;11.35;;;2.55;;
70071;SDS011;57434;42.794;23.302;2022-10-19T03:44:43;6.63;;;3.05;;
70071;SDS011;57434;42.794;23.302;2022-10-19T03:47:10;16.77;;;3.17;;
70071;SDS011;57434;42.794;23.302;2022-10-19T03:49:39;5.78;;;2.13;;
70071;SDS011;57434;42.794;23.302;2022-10-19T03:52:06;8.07;;;2.37;;
70071;SDS011;57434;42.794;23.302;2022-10-19T03:54:35;6.60;;;2.15;;
70071;SDS011;57434;42.794;23.302;2022-10-19T03:57:03;11.90;;;5.80;;
70071;SDS011;57434;42.794;23.302;2022-10-19T03:59:33;14.30;;;5.35;;
70071;SDS011;57434;42.794;23.302;2022-10-19T04:02:03;12.65;;;4.63;;
70071;SDS011;57434;42.794;23.302;2022-10-19T04:04:38;9.10;;;2.50;;
70071;SDS011;57434;42.794;23.302;2022-10-19T04:07:17;11.00;;;3.30;;
70071;SDS011;57434;42.794;23.302;2022-10-19T04:09:59;28.88;;;3.53;;
70071;SDS011;57434;42.794;23.302;2022-10-19T04:15:42;13.55;;;2.80;;
70071;SDS011;57434;42.794;23.302;2022-10-19T04:18:09;10.70;;;2.50;;
70071;SDS011;57434;42.794;23.302;2022-10-19T04:20:39;10.18;;;2.63;;
70071;SDS011;57434;42.794;23.302;2022-10-19T04:23:06;7.03;;;2.97;;
70071;SDS011;57434;42.794;23.302;2022-10-19T04:25:33;10.90;;;3.10;;
70071;SDS011;57434;42.794;23.302;2022-10-19T04:28:00;11.43;;;2.80;;
70071;SDS011;57434;42.794;23.302;2022-10-19T04:30:27;5.70;;;2.50;;
70071;SDS011;57434;42.794;23.302;2022-10-19T04:32:54;6.13;;;2.92;;
70071;SDS011;57434;42.794;23.302;2022-10-19T04:35:21;6.20;;;2.90;;
70071;SDS011;57434;42.794;23.302;2022-10-19T04:37:48;7.13;;;2.78;;
70071;SDS011;57434;42.794;23.302;2022-10-19T04:40:15;7.55;;;3.30;;
70071;SDS011;57434;42.794;23.302;2022-10-19T04:42:42;6.10;;;2.80;;
70071;SDS011;57434;42.794;23.302;2022-10-19T04:45:09;7.53;;;3.22;;
70071;SDS011;57434;42.794;23.302;2022-10-19T04:47:37;7.63;;;3.25;;
70071;SDS011;57434;42.794;23.302;2022-10-19T04:50:04;7.45;;;2.60;;
70071;SDS011;57434;42.794;23.302;2022-10-19T04:52:31;10.75;;;4.75;;
70071;SDS011;57434;42.794;23.302;2022-10-19T04:54:58;7.97;;;3.80;;
70071;SDS011;57434;42.794;23.302;2022-10-19T04:57:25;10.45;;;2.60;;
70071;SDS011;57434;42.794;23.302;2022-10-19T04:59:52;8.07;;;2.65;;
70071;SDS011;57434;42.794;23.302;2022-10-19T05:02:19;7.95;;;3.15;;
70071;SDS011;57434;42.794;23.302;2022-10-19T05:04:46;10.20;;;3.10;;
70071;SDS011;57434;42.794;23.302;2022-10-19T05:07:13;6.20;;;2.37;;
70071;SDS011;57434;42.794;23.302;2022-10-19T05:09:40;8.23;;;2.95;;
70071;SDS011;57434;42.794;23.302;2022-10-19T05:12:07;8.43;;;3.15;;
70071;SDS011;57434;42.794;23.302;2022-10-19T05:14:34;8.98;;;3.17;;
70071;SDS011;57434;42.794;23.302;2022-10-19T05:17:07;7.78;;;3.53;;
70071;SDS011;57434;42.794;23.302;2022-10-19T05:19:33;12.17;;;3.57;;
70071;SDS011;57434;42.794;23.302;2022-10-19T05:22:00;14.77;;;3.92;;
70071;SDS011;57434;42.794;23.302;2022-10-19T05:24:27;9.38;;;3.72;;
70071;SDS011;57434;42.794;23.302;2022-10-19T05:26:54;10.10;;;3.83;;
70071;SDS011;57434;42.794;23.302;2022-10-19T05:29:21;12.45;;;5.85;;
70071;SDS011;57434;42.794;23.302;2022-10-19T05:31:48;8.60;;;4.07;;
70071;SDS011;57434;42.794;23.302;2022-10-19T05:34:15;7.72;;;3.85;;
70071;SDS011;57434;42.794;23.302;2022-10-19T05:36:42;12.60;;;4.07;;
70071;SDS011;57434;42.794;23.302;2022-10-19T05:39:13;9.18;;;4.07;;
70071;SDS011;57434;42.794;23.302;2022-10-19T05:41:44;7.82;;;4.03;;
70071;SDS011;57434;42.794;23.302;2022-10-19T05:44:13;9.60;;;4.73;;
70071;SDS011;57434;42.794;23.302;2022-10-19T05:46:43;8.30;;;4.30;;
70071;SDS011;57434;42.794;23.302;2022-10-19T05:49:11;7.97;;;3.58;;
70071;SDS011;57434;42.794;23.302;2022-10-19T05:51:40;12.02;;;4.70;;
70071;SDS011;57434;42.794;23.302;2022-10-19T05:54:11;12.10;;;6.18;;
70071;SDS011;57434;42.794;23.302;2022-10-19T05:56:40;16.67;;;6.73;;
70071;SDS011;57434;42.794;23.302;2022-10-19T05:59:08;13.13;;;5.15;;
70071;SDS011;57434;42.794;23.302;2022-10-19T06:01:38;13.80;;;4.88;;
70071;SDS011;57434;42.794;23.302;2022-10-19T06:04:12;7.97;;;3.40;;
70071;SDS011;57434;42.794;23.302;2022-10-19T06:06:47;8.75;;;3.85;;
70071;SDS011;57434;42.794;23.302;2022-10-19T06:09:18;10.97;;;5.03;;
70071;SDS011;57434;42.794;23.302;2022-10-19T06:11:45;10.95;;;5.07;;
70071;SDS011;57434;42.794;23.302;2022-10-19T06:14:14;13.20;;;6.53;;
70071;SDS011;57434;42.794;23.302;2022-10-19T06:16:42;10.05;;;4.90;;
70071;SDS011;57434;42.794;23.302;2022-10-19T06:19:09;10.68;;;4.45;;
70071;SDS011;57434;42.794;23.302;2022-10-19T06:21:36;15.97;;;5.07;;
70071;SDS011;57434;42.794;23.302;2022-10-19T06:24:11;12.90;;;4.90;;
70071;SDS011;57434;42.794;23.302;2022-10-19T06:26:43;11.73;;;5.40;;
70071;SDS011;57434;42.794;23.302;2022-10-19T06:29:37;12.27;;;5.50;;
70071;SDS011;57434;42.794;23.302;2022-10-19T06:32:04;11.82;;;5.07;;
70071;SDS011;57434;42.794;23.302;2022-10-19T06:34:31;12.13;;;6.33;;
70071;SDS011;57434;42.794;23.302;2022-10-19T06:36:58;12.52;;;5.40;;
70071;SDS011;57434;42.794;23.302;2022-10-19T06:39:25;13.77;;;6.07;;
70071;SDS011;57434;42.794;23.302;2022-10-19T06:41:52;17.83;;;5.85;;
70071;SDS011;57434;42.794;23.302;2022-10-19T06:44:19;16.00;;;5.97;;
70071;SDS011;57434;42.794;23.302;2022-10-19T06:46:46;9.43;;;4.77;;
70071;SDS011;57434;42.794;23.302;2022-10-19T06:49:13;11.02;;;4.68;;
70071;SDS011;57434;42.794;23.302;2022-10-19T06:51:40;10.57;;;4.72;;
70071;SDS011;57434;42.794;23.302;2022-10-19T06:54:07;10.45;;;4.75;;
70071;SDS011;57434;42.794;23.302;2022-10-19T06:56:34;11.77;;;4.80;;
70071;SDS011;57434;42.794;23.302;2022-10-19T06:59:01;12.40;;;4.93;;
70071;SDS011;57434;42.794;23.302;2022-10-19T07:01:28;9.30;;;4.72;;
70071;SDS011;57434;42.794;23.302;2022-10-19T07:03:55;9.05;;;4.28;;
70071;SDS011;57434;42.794;23.302;2022-10-19T07:06:22;11.88;;;4.57;;
70071;SDS011;57434;42.794;23.302;2022-10-19T07:08:50;16.50;;;8.98;;
70071;SDS011;57434;42.794;23.302;2022-10-19T07:11:19;8.07;;;4.27;;
70071;SDS011;57434;42.794;23.302;2022-10-19T07:13:47;9.88;;;4.22;;
70071;SDS011;57434;42.794;23.302;2022-10-19T07:16:15;8.05;;;4.20;;
70071;SDS011;57434;42.794;23.302;2022-10-19T07:18:47;11.80;;;4.15;;
70071;SDS011;57434;42.794;23.302;2022-10-19T07:21:15;10.50;;;4.65;;
70071;SDS011;57434;42.794;23.302;2022-10-19T07:23:43;14.00;;;4.40;;
70071;SDS011;57434;42.794;23.302;2022-10-19T07:26:13;12.75;;;4.85;;
70071;SDS011;57434;42.794;23.302;2022-10-19T07:28:47;9.82;;;4.50;;
70071;SDS011;57434;42.794;23.302;2022-10-19T07:31:16;12.40;;;4.72;;
70071;SDS011;57434;42.794;23.302;2022-10-19T07:33:45;13.13;;;5.80;;
70071;SDS011;57434;42.794;23.302;2022-10-19T07:36:13;13.63;;;5.57;;
70071;SDS011;57434;42.794;23.302;2022-10-19T07:38:40;15.27;;;5.53;;
70071;SDS011;57434;42.794;23.302;2022-10-19T07:41:11;14.57;;;5.28;;
70071;SDS011;57434;42.794;23.302;2022-10-19T07:43:40;13.48;;;5.97;;
70071;SDS011;57434;42.794;23.302;2022-10-19T07:46:10;13.55;;;5.47;;
70071;SDS011;57434;42.794;23.302;2022-10-19T07:48:41;12.37;;;5.10;;
70071;SDS011;57434;42.794;23.302;2022-10-19T07:51:10;10.27;;;4.93;;
70071;SDS011;57434;42.794;23.302;2022-10-19T07:53:38;9.73;;;4.93;;
70071;SDS011;57434;42.794;23.302;2022-10-19T07:56:06;10.48;;;5.20;;
70071;SDS011;57434;42.794;23.302;2022-10-19T07:58:38;15.60;;;5.57;;
70071;SDS011;57434;42.794;23.302;2022-10-19T08:01:08;9.17;;;4.80;;
70071;SDS011;57434;42.794;23.302;2022-10-19T08:03:36;13.65;;;5.43;;
70071;SDS011;57434;42.794;23.302;2022-10-19T08:06:24;10.70;;;5.43;;
70071;SDS011;57434;42.794;23.302;2022-10-19T08:08:51;12.52;;;4.70;;
70071;SDS011;57434;42.794;23.302;2022-10-19T08:11:21;12.27;;;5.22;;
70071;SDS011;57434;42.794;23.302;2022-10-19T08:13:51;11.90;;;4.40;;
70071;SDS011;57434;42.794;23.302;2022-10-19T08:19:01;14.52;;;4.78;;
70071;SDS011;57434;42.794;23.302;2022-10-19T08:21:30;12.43;;;5.47;;
70071;SDS011;57434;42.794;23.302;2022-10-19T08:23:57;16.90;;;5.85;;
70071;SDS011;57434;42.794;23.302;2022-10-19T08:26:26;12.60;;;5.57;;
70071;SDS011;57434;42.794;23.302;2022-10-19T08:28:59;11.90;;;5.25;;
70071;SDS011;57434;42.794;23.302;2022-10-19T08:31:30;13.88;;;5.93;;
70071;SDS011;57434;42.794;23.302;2022-10-19T08:33:58;12.48;;;4.90;;
70071;SDS011;57434;42.794;23.302;2022-10-19T08:36:24;11.90;;;5.28;;
70071;SDS011;57434;42.794;23.302;2022-10-19T08:38:52;11.70;;;4.70;;
70071;SDS011;57434;42.794;23.302;2022-10-19T08:41:25;10.27;;;5.55;;
70071;SDS011;57434;42.794;23.302;2022-10-19T08:50:13;10.23;;;4.20;;
70071;SDS011;57434;42.794;23.302;2022-10-19T08:53:11;9.87;;;4.57;;
70071;SDS011;57434;42.794;23.302;2022-10-19T09:01:29;8.30;;;3.35;;
70071;SDS011;57434;42.794;23.302;2022-10-19T09:04:27;8.80;;;3.10;;
70071;SDS011;57434;42.794;23.302;2022-10-19T09:12:59;7.18;;;2.40;;
70071;SDS011;57434;42.794;23.302;2022-10-19T09:15:37;6.53;;;2.80;;
70071;SDS011;57434;42.794;23.302;2022-10-19T09:18:10;7.82;;;2.63;;
70071;SDS011;57434;42.794;23.302;2022-10-19T09:20:44;7.53;;;2.40;;
70071;SDS011;57434;42.794;23.302;2022-10-19T09:26:09;7.25;;;2.50;;
70071;SDS011;57434;42.794;23.302;2022-10-19T09:31:23;6.82;;;2.80;;
70071;SDS011;57434;42.794;23.302;2022-10-19T09:37:06;8.30;;;2.80;;
70071;SDS011;57434;42.794;23.302;2022-10-19T09:39:55;8.77;;;3.25;;
70071;SDS011;57434;42.794;23.302;2022-10-19T09:42:25;6.70;;;2.75;;
70071;SDS011;57434;42.794;23.302;2022-10-19T09:45:00;7.30;;;2.80;;
70071;SDS011;57434;42.794;23.302;2022-10-19T09:47:37;8.00;;;2.93;;
70071;SDS011;57434;42.794;23.302;2022-10-19T09:52:34;6.90;;;3.00;;
70071;SDS011;57434;42.794;23.302;2022-10-19T09:55:16;6.97;;;2.65;;
70071;SDS011;57434;42.794;23.302;2022-10-19T09:57:50;5.95;;;2.67;;
70071;SDS011;57434;42.794;23.302;2022-10-19T10:00:30;5.90;;;2.90;;
70071;SDS011;57434;42.794;23.302;2022-10-19T10:03:29;8.07;;;2.60;;
70071;SDS011;57434;42.794;23.302;2022-10-19T10:06:00;7.13;;;3.17;;
70071;SDS011;57434;42.794;23.302;2022-10-19T10:08:31;7.15;;;3.03;;
70071;SDS011;57434;42.794;23.302;2022-10-19T10:11:13;9.15;;;2.90;;
70071;SDS011;57434;42.794;23.302;2022-10-19T10:13:58;6.30;;;2.43;;
70071;SDS011;57434;42.794;23.302;2022-10-19T10:16:35;8.88;;;2.80;;
70071;SDS011;57434;42.794;23.302;2022-10-19T10:19:05;7.82;;;2.78;;
70071;SDS011;57434;42.794;23.302;2022-10-19T10:21:46;7.93;;;3.00;;
70071;SDS011;57434;42.794;23.302;2022-10-19T10:24:17;7.45;;;2.50;;
70071;SDS011;57434;42.794;23.302;2022-10-19T10:26:48;5.93;;;2.57;;
70071;SDS011;57434;42.794;23.302;2022-10-19T10:29:23;8.77;;;2.50;;
70071;SDS011;57434;42.794;23.302;2022-10-19T10:31:59;7.15;;;2.90;;
70071;SDS011;57434;42.794;23.302;2022-10-19T10:34:39;6.28;;;2.60;;
70071;SDS011;57434;42.794;23.302;2022-10-19T10:37:31;7.90;;;2.88;;
70071;SDS011;57434;42.794;23.302;2022-10-19T10:40:05;7.03;;;2.80;;
70071;SDS011;57434;42.794;23.302;2022-10-19T10:42:54;6.85;;;2.90;;
70071;SDS011;57434;42.794;23.302;2022-10-19T10:45:30;6.43;;;2.40;;
70071;SDS011;57434;42.794;23.302;2022-10-19T10:50:57;5.97;;;2.60;;
70071;SDS011;57434;42.794;23.302;2022-10-19T10:53:33;4.97;;;2.27;;
70071;SDS011;57434;42.794;23.302;2022-10-19T10:56:04;6.28;;;2.38;;
70071;SDS011;57434;42.794;23.302;2022-10-19T10:58:47;6.18;;;3.00;;
70071;SDS011;57434;42.794;23.302;2022-10-19T11:01:34;7.32;;;2.92;;
70071;SDS011;57434;42.794;23.302;2022-10-19T11:04:11;5.35;;;2.40;;
70071;SDS011;57434;42.794;23.302;2022-10-19T11:06:50;5.77;;;2.40;;
70071;SDS011;57434;42.794;23.302;2022-10-19T11:09:33;11.23;;;2.90;;
70071;SDS011;57434;42.794;23.302;2022-10-19T11:12:04;8.00;;;2.92;;
70071;SDS011;57434;42.794;23.302;2022-10-19T11:14:42;7.68;;;2.45;;
70071;SDS011;57434;42.794;23.302;2022-10-19T11:17:22;7.15;;;2.50;;
70071;SDS011;57434;42.794;23.302;2022-10-19T11:19:53;8.53;;;2.87;;
70071;SDS011;57434;42.794;23.302;2022-10-19T11:28:00;7.50;;;2.75;;
70071;SDS011;57434;42.794;23.302;2022-10-19T11:31:06;6.25;;;2.65;;
70071;SDS011;57434;42.794;23.302;2022-10-19T11:36:30;5.43;;;2.35;;
70071;SDS011;57434;42.794;23.302;2022-10-19T11:41:48;5.22;;;2.58;;
70071;SDS011;57434;42.794;23.302;2022-10-19T11:44:24;6.07;;;2.50;;
70071;SDS011;57434;42.794;23.302;2022-10-19T11:55:35;6.60;;;2.33;;
70071;SDS011;57434;42.794;23.302;2022-10-19T11:58:23;6.75;;;2.75;;
70071;SDS011;57434;42.794;23.302;2022-10-19T12:01:15;6.33;;;2.27;;
70071;SDS011;57434;42.794;23.302;2022-10-19T12:06:57;5.50;;;2.45;;
70071;SDS011;57434;42.794;23.302;2022-10-19T12:14:50;6.13;;;2.90;;
70071;SDS011;57434;42.794;23.302;2022-10-19T12:17:24;6.55;;;2.58;;
70071;SDS011;57434;42.794;23.302;2022-10-19T12:20:00;9.50;;;3.08;;
70071;SDS011;57434;42.794;23.302;2022-10-19T12:22:31;5.68;;;2.60;;
70071;SDS011;57434;42.794;23.302;2022-10-19T12:25:01;7.07;;;2.67;;
70071;SDS011;57434;42.794;23.302;2022-10-19T12:27:33;7.37;;;2.70;;
70071;SDS011;57434;42.794;23.302;2022-10-19T12:30:04;9.65;;;2.78;;
70071;SDS011;57434;42.794;23.302;2022-10-19T12:32:38;7.97;;;2.80;;
70071;SDS011;57434;42.794;23.302;2022-10-19T12:38:10;7.38;;;2.60;;
70071;SDS011;57434;42.794;23.302;2022-10-19T12:40:49;5.77;;;2.77;;
70071;SDS011;57434;42.794;23.302;2022-10-19T12:47:05;8.13;;;3.20;;
70071;SDS011;57434;42.794;23.302;2022-10-19T12:51:57;10.25;;;2.72;;
70071;SDS011;57434;42.794;23.302;2022-10-19T12:54:27;7.87;;;3.30;;
70071;SDS011;57434;42.794;23.302;2022-10-19T12:56:59;7.32;;;2.88;;
70071;SDS011;57434;42.794;23.302;2022-10-19T12:59:33;6.15;;;2.70;;
70071;SDS011;57434;42.794;23.302;2022-10-19T13:02:14;9.18;;;3.00;;
70071;SDS011;57434;42.794;23.302;2022-10-19T13:04:52;6.55;;;2.90;;
70071;SDS011;57434;42.794;23.302;2022-10-19T13:07:20;6.27;;;2.80;;
70071;SDS011;57434;42.794;23.302;2022-10-19T13:10:00;9.10;;;2.95;;
70071;SDS011;57434;42.794;23.302;2022-10-19T13:12:54;9.35;;;3.20;;
70071;SDS011;57434;42.794;23.302;2022-10-19T13:18:03;6.05;;;2.80;;
70071;SDS011;57434;42.794;23.302;2022-10-19T13:25:33;6.65;;;3.08;;
70071;SDS011;57434;42.794;23.302;2022-10-19T13:35:48;10.40;;;3.30;;
70071;SDS011;57434;42.794;23.302;2022-10-19T13:38:28;7.60;;;3.45;;
70071;SDS011;57434;42.794;23.302;2022-10-19T13:41:05;7.32;;;3.20;;
70071;SDS011;57434;42.794;23.302;2022-10-19T13:43:40;8.30;;;2.90;;
70071;SDS011;57434;42.794;23.302;2022-10-19T13:49:03;7.53;;;3.22;;
70071;SDS011;57434;42.794;23.302;2022-10-19T14:04:35;8.90;;;3.00;;
70071;SDS011;57434;42.794;23.302;2022-10-19T14:06:59;8.98;;;3.30;;
70071;SDS011;57434;42.794;23.302;2022-10-19T14:09:50;8.95;;;2.90;;
70071;SDS011;57434;42.794;23.302;2022-10-19T14:12:26;9.60;;;3.90;;
70071;SDS011;57434;42.794;23.302;2022-10-19T14:14:55;7.60;;;3.20;;
70071;SDS011;57434;42.794;23.302;2022-10-19T14:17:23;8.68;;;3.40;;
70071;SDS011;57434;42.794;23.302;2022-10-19T14:19:53;20.08;;;8.55;;
70071;SDS011;57434;42.794;23.302;2022-10-19T14:22:34;30.48;;;12.32;;
70071;SDS011;57434;42.794;23.302;2022-10-19T14:25:03;36.30;;;13.20;;
70071;SDS011;57434;42.794;23.302;2022-10-19T14:27:47;9.27;;;3.40;;
70071;SDS011;57434;42.794;23.302;2022-10-19T14:30:20;10.95;;;3.53;;
70071;SDS011;57434;42.794;23.302;2022-10-19T14:32:55;10.52;;;4.35;;
70071;SDS011;57434;42.794;23.302;2022-10-19T14:35:30;10.05;;;4.00;;
70071;SDS011;57434;42.794;23.302;2022-10-19T14:38:02;11.07;;;4.28;;
70071;SDS011;57434;42.794;23.302;2022-10-19T14:40:32;11.93;;;4.60;;
70071;SDS011;57434;42.794;23.302;2022-10-19T14:43:40;8.32;;;3.42;;
70071;SDS011;57434;42.794;23.302;2022-10-19T14:48:36;10.88;;;3.97;;
70071;SDS011;57434;42.794;23.302;2022-10-19T14:51:13;10.50;;;4.30;;
70071;SDS011;57434;42.794;23.302;2022-10-19T14:53:49;11.93;;;5.87;;
70071;SDS011;57434;42.794;23.302;2022-10-19T14:56:32;8.50;;;4.13;;
70071;SDS011;57434;42.794;23.302;2022-10-19T14:59:14;8.77;;;3.88;;
70071;SDS011;57434;42.794;23.302;2022-10-19T15:01:51;9.00;;;4.20;;
70071;SDS011;57434;42.794;23.302;2022-10-19T15:04:31;12.73;;;5.00;;
70071;SDS011;57434;42.794;23.302;2022-10-19T15:07:02;8.67;;;4.40;;
70071;SDS011;57434;42.794;23.302;2022-10-19T15:09:39;14.65;;;5.15;;
70071;SDS011;57434;42.794;23.302;2022-10-19T15:12:15;8.40;;;4.68;;
70071;SDS011;57434;42.794;23.302;2022-10-19T15:14:45;9.52;;;4.57;;
70071;SDS011;57434;42.794;23.302;2022-10-19T15:17:21;10.00;;;4.63;;
70071;SDS011;57434;42.794;23.302;2022-10-19T15:19:52;10.17;;;4.80;;
70071;SDS011;57434;42.794;23.302;2022-10-19T15:22:20;12.98;;;5.25;;
70071;SDS011;57434;42.794;23.302;2022-10-19T15:27:33;13.25;;;5.88;;
70071;SDS011;57434;42.794;23.302;2022-10-19T15:32:50;10.30;;;5.17;;
70071;SDS011;57434;42.794;23.302;2022-10-19T15:35:28;10.73;;;4.50;;
70071;SDS011;57434;42.794;23.302;2022-10-19T15:38:04;11.48;;;5.43;;
70071;SDS011;57434;42.794;23.302;2022-10-19T15:40:34;9.27;;;4.53;;
70071;SDS011;57434;42.794;23.302;2022-10-19T15:45:58;11.40;;;4.93;;
70071;SDS011;57434;42.794;23.302;2022-10-19T15:48:47;11.48;;;5.57;;
70071;SDS011;57434;42.794;23.302;2022-10-19T15:53:47;12.15;;;6.35;;
70071;SDS011;57434;42.794;23.302;2022-10-19T15:56:15;11.48;;;5.47;;
70071;SDS011;57434;42.794;23.302;2022-10-19T15:58:43;11.47;;;5.77;;
70071;SDS011;57434;42.794;23.302;2022-10-19T16:01:14;12.07;;;6.60;;
70071;SDS011;57434;42.794;23.302;2022-10-19T16:03:43;14.65;;;6.53;;
70071;SDS011;57434;42.794;23.302;2022-10-19T16:06:11;10.80;;;5.97;;
70071;SDS011;57434;42.794;23.302;2022-10-19T16:08:38;12.15;;;6.45;;
70071;SDS011;57434;42.794;23.302;2022-10-19T16:11:07;13.13;;;6.03;;
70071;SDS011;57434;42.794;23.302;2022-10-19T16:13:37;10.75;;;5.80;;
70071;SDS011;57434;42.794;23.302;2022-10-19T16:16:05;12.82;;;6.20;;
70071;SDS011;57434;42.794;23.302;2022-10-19T16:18:37;13.80;;;7.05;;
70071;SDS011;57434;42.794;23.302;2022-10-19T16:21:04;12.07;;;5.85;;
70071;SDS011;57434;42.794;23.302;2022-10-19T16:23:31;11.80;;;7.00;;
70071;SDS011;57434;42.794;23.302;2022-10-19T16:26:00;13.82;;;6.53;;
70071;SDS011;57434;42.794;23.302;2022-10-19T16:28:27;15.85;;;6.93;;
70071;SDS011;57434;42.794;23.302;2022-10-19T16:30:54;13.10;;;6.78;;
70071;SDS011;57434;42.794;23.302;2022-10-19T16:33:21;13.23;;;6.97;;
70071;SDS011;57434;42.794;23.302;2022-10-19T16:35:48;18.13;;;9.30;;
70071;SDS011;57434;42.794;23.302;2022-10-19T16:38:15;18.35;;;8.15;;
70071;SDS011;57434;42.794;23.302;2022-10-19T16:40:42;13.80;;;7.43;;
70071;SDS011;57434;42.794;23.302;2022-10-19T16:43:09;13.05;;;6.72;;
70071;SDS011;57434;42.794;23.302;2022-10-19T16:45:40;14.02;;;6.55;;
70071;SDS011;57434;42.794;23.302;2022-10-19T16:48:08;11.53;;;6.47;;
70071;SDS011;57434;42.794;23.302;2022-10-19T16:50:37;18.50;;;6.82;;
70071;SDS011;57434;42.794;23.302;2022-10-19T16:53:09;14.38;;;7.57;;
70071;SDS011;57434;42.794;23.302;2022-10-19T16:55:36;12.68;;;6.97;;
70071;SDS011;57434;42.794;23.302;2022-10-19T16:58:04;13.75;;;6.82;;
70071;SDS011;57434;42.794;23.302;2022-10-19T17:00:31;11.87;;;6.87;;
70071;SDS011;57434;42.794;23.302;2022-10-19T17:02:58;11.68;;;6.63;;
70071;SDS011;57434;42.794;23.302;2022-10-19T17:05:25;14.02;;;7.57;;
70071;SDS011;57434;42.794;23.302;2022-10-19T17:07:52;17.95;;;8.75;;
70071;SDS011;57434;42.794;23.302;2022-10-19T17:10:19;26.83;;;11.98;;
70071;SDS011;57434;42.794;23.302;2022-10-19T17:12:46;22.30;;;11.20;;
70071;SDS011;57434;42.794;23.302;2022-10-19T17:15:13;17.50;;;8.68;;
70071;SDS011;57434;42.794;23.302;2022-10-19T17:18:00;15.10;;;8.75;;